Terminal Aerodrome Forecast
Issued by NWS

Home | Current Version | Previous Version | Text Only | Print | Product List | Glossary On
Versions: 1 2 3 4 5 6 7 8 9 10 11 12 13 14 15 16 17 18 19 20 21 22 23
000
FTUS43 KGRR 160500
TAFJXN
TAF
KJXN 160540Z 1606/1706 35003KT P6SM BKN006
     FM160900 VRB03KT P6SM SKC
     FM160930 VRB03KT 2SM BR SCT004
     FM161000 VRB03KT 1/4SM FG OVC004
     FM161400 33004KT 2SM BR BKN012
     FM161500 32005KT 4SM BR SCT012 BKN025
     FM161600 31006KT P6SM SCT035=

USA.gov is the U.S. government's official web portal to all federal, state and local government web resources and services.